Terminal Aerodrome Forecast
Issued by NWS

Home | Current Version | Previous Version | Text Only | Print | Product List | Glossary Off
Versions: 1 2 3 4 5 6 7 8 9 10 11 12 13 14 15 16 17 18 19

923
FTUS43 KFGF 140520
TAFBJI
TAF
KBJI 140520Z 1406/1506 VRB06KT P6SM SCT015
      TEMPO 1406/1409 BKN015
     FM140900 VRB06KT P6SM OVC008
     FM141700 08006KT P6SM OVC040
     FM142200 09006KT P6SM SCT090=

USA.gov is the U.S. government's official web portal to all federal, state and local government web resources and services.